logo
Search for airport 
image banner adimage banner adimage banner ad
image banner ad

RPLN - Palanan Community Airport

Located in Palanan, Philippines

ICAO - RPLN, IATA -

Data provided by Airmate  

General information

Coordinates: N17°3'48" E122°25'56"
Elevation is 167 feet MSL.
Magnetic variation is -3° East
View others Airports in Isabela

Operational data

Special qualification required
Current time UTC:
Current local time:
Weather at : - ( 0 km )
METAR: CYNA 220927Z AUTO 09004KT 2 1/4SM -SN FEW003 BKN014 OVC019 00/M00 A2957 RMK ICE PCPN 0.8MM PAST HR SLP016
View NOTAMs / SUP AIP / TFR affecting this airport [VIEW]
Communications frequencies: [VIEW]

Runways:

RWY identifierQFULength (ft)Width (ft)SurfaceLDA (ft)
0222°328198MACADAM3281
20202°328198MACADAM3281

Airport contact information

Address: Palanan Philippines

Satellite view of RPLN